sensor_id;sensor_type;location;lat;lon;timestamp;temperature;humidity
68842;SHT35;55849;48.482;2.332;2023-12-20T05:55:23;7.78;80.14
68842;SHT35;55849;48.482;2.332;2023-12-20T05:58:24;7.74;79.87
68842;SHT35;55849;48.482;2.332;2023-12-20T06:01:26;7.74;80.49
68842;SHT35;55849;48.482;2.332;2023-12-20T06:04:28;7.71;81.03
68842;SHT35;55849;48.482;2.332;2023-12-20T06:07:29;7.72;81.13
68842;SHT35;55849;48.482;2.332;2023-12-20T06:10:32;7.75;81.58
68842;SHT35;55849;48.482;2.332;2023-12-20T06:13:34;7.77;82.06
68842;SHT35;55849;48.482;2.332;2023-12-20T06:16:35;7.78;81.91
68842;SHT35;55849;48.482;2.332;2023-12-20T06:19:37;7.81;82.41
68842;SHT35;55849;48.482;2.332;2023-12-20T06:22:39;7.85;81.75
68842;SHT35;55849;48.482;2.332;2023-12-20T06:25:42;7.87;82.26
68842;SHT35;55849;48.482;2.332;2023-12-20T06:28:43;7.93;82.15
68842;SHT35;55849;48.482;2.332;2023-12-20T06:31:45;7.93;81.89
68842;SHT35;55849;48.482;2.332;2023-12-20T06:34:46;7.96;82.25
68842;SHT35;55849;48.482;2.332;2023-12-20T06:37:48;8.00;82.10
68842;SHT35;55849;48.482;2.332;2023-12-20T06:40:51;8.03;81.86
68842;SHT35;55849;48.482;2.332;2023-12-20T06:43:52;8.04;81.92
68842;SHT35;55849;48.482;2.332;2023-12-20T06:46:54;8.04;81.48
68842;SHT35;55849;48.482;2.332;2023-12-20T06:49:55;8.09;81.92
68842;SHT35;55849;48.482;2.332;2023-12-20T06:52:57;8.09;81.48
68842;SHT35;55849;48.482;2.332;2023-12-20T06:56:00;8.09;81.44
68842;SHT35;55849;48.482;2.332;2023-12-20T06:59:03;8.07;81.93
68842;SHT35;55849;48.482;2.332;2023-12-20T07:02:04;8.10;81.45
68842;SHT35;55849;48.482;2.332;2023-12-20T07:05:07;8.12;82.02
68842;SHT35;55849;48.482;2.332;2023-12-20T07:08:08;8.14;82.48
68842;SHT35;55849;48.482;2.332;2023-12-20T07:11:12;8.14;82.14
68842;SHT35;55849;48.482;2.332;2023-12-20T07:14:13;8.17;82.21
68842;SHT35;55849;48.482;2.332;2023-12-20T07:17:15;8.16;82.18
68842;SHT35;55849;48.482;2.332;2023-12-20T07:20:17;8.17;81.95
68842;SHT35;55849;48.482;2.332;2023-12-20T07:23:18;8.17;81.46
68842;SHT35;55849;48.482;2.332;2023-12-20T07:26:21;8.16;81.86
68842;SHT35;55849;48.482;2.332;2023-12-20T07:29:23;8.16;81.95
68842;SHT35;55849;48.482;2.332;2023-12-20T07:32:25;8.14;81.53
68842;SHT35;55849;48.482;2.332;2023-12-20T07:35:27;8.13;81.41
68842;SHT35;55849;48.482;2.332;2023-12-20T07:38:28;8.10;81.41
68842;SHT35;55849;48.482;2.332;2023-12-20T07:41:31;8.09;81.32
68842;SHT35;55849;48.482;2.332;2023-12-20T07:44:33;8.04;81.36
68842;SHT35;55849;48.482;2.332;2023-12-20T07:47:36;8.03;81.43
68842;SHT35;55849;48.482;2.332;2023-12-20T07:50:37;8.03;81.46
68842;SHT35;55849;48.482;2.332;2023-12-20T07:53:39;8.02;81.46
68842;SHT35;55849;48.482;2.332;2023-12-20T07:56:42;7.95;81.18
68842;SHT35;55849;48.482;2.332;2023-12-20T07:59:44;7.95;81.28
68842;SHT35;55849;48.482;2.332;2023-12-20T08:02:45;7.93;81.43
68842;SHT35;55849;48.482;2.332;2023-12-20T08:05:47;7.89;80.99
68842;SHT35;55849;48.482;2.332;2023-12-20T08:08:48;7.92;81.62
68842;SHT35;55849;48.482;2.332;2023-12-20T08:11:51;7.92;81.97
68842;SHT35;55849;48.482;2.332;2023-12-20T08:14:53;7.92;81.40
68842;SHT35;55849;48.482;2.332;2023-12-20T08:17:55;7.92;81.49
68842;SHT35;55849;48.482;2.332;2023-12-20T08:20:56;7.87;81.32
68842;SHT35;55849;48.482;2.332;2023-12-20T08:23:58;7.89;81.79
68842;SHT35;55849;48.482;2.332;2023-12-20T08:27:02;7.87;81.71
68842;SHT35;55849;48.482;2.332;2023-12-20T08:30:05;7.87;81.50
68842;SHT35;55849;48.482;2.332;2023-12-20T08:33:07;7.85;82.04
68842;SHT35;55849;48.482;2.332;2023-12-20T08:36:11;7.87;82.25
68842;SHT35;55849;48.482;2.332;2023-12-20T08:39:13;7.90;82.05
68842;SHT35;55849;48.482;2.332;2023-12-20T08:42:16;7.89;82.14
68842;SHT35;55849;48.482;2.332;2023-12-20T08:45:18;7.89;81.93
68842;SHT35;55849;48.482;2.332;2023-12-20T08:48:19;7.90;82.04
68842;SHT35;55849;48.482;2.332;2023-12-20T08:51:21;7.93;82.27
68842;SHT35;55849;48.482;2.332;2023-12-20T08:54:25;7.90;81.71
68842;SHT35;55849;48.482;2.332;2023-12-20T08:57:28;7.92;82.30
68842;SHT35;55849;48.482;2.332;2023-12-20T09:00:32;7.93;82.52
68842;SHT35;55849;48.482;2.332;2023-12-20T09:03:33;7.95;82.43
68842;SHT35;55849;48.482;2.332;2023-12-20T09:06:35;7.96;82.21
68842;SHT35;55849;48.482;2.332;2023-12-20T09:09:36;7.97;82.54
68842;SHT35;55849;48.482;2.332;2023-12-20T09:12:39;8.00;82.16
68842;SHT35;55849;48.482;2.332;2023-12-20T09:15:42;8.00;82.29
68842;SHT35;55849;48.482;2.332;2023-12-20T09:18:44;8.04;82.27
68842;SHT35;55849;48.482;2.332;2023-12-20T09:21:46;8.06;82.16
68842;SHT35;55849;48.482;2.332;2023-12-20T09:24:47;8.06;82.33
68842;SHT35;55849;48.482;2.332;2023-12-20T09:27:50;8.09;82.46
68842;SHT35;55849;48.482;2.332;2023-12-20T09:30:52;8.12;82.66
68842;SHT35;55849;48.482;2.332;2023-12-20T09:33:54;8.14;82.65
68842;SHT35;55849;48.482;2.332;2023-12-20T09:36:55;8.17;82.87
68842;SHT35;55849;48.482;2.332;2023-12-20T09:39:57;8.21;82.87
68842;SHT35;55849;48.482;2.332;2023-12-20T09:43:03;8.29;82.62
68842;SHT35;55849;48.482;2.332;2023-12-20T09:46:06;8.31;82.51
68842;SHT35;55849;48.482;2.332;2023-12-20T09:49:08;8.34;82.38
68842;SHT35;55849;48.482;2.332;2023-12-20T09:52:11;8.38;82.47
68842;SHT35;55849;48.482;2.332;2023-12-20T09:55:14;8.40;82.56
68842;SHT35;55849;48.482;2.332;2023-12-20T09:58:19;8.40;82.49
68842;SHT35;55849;48.482;2.332;2023-12-20T10:01:21;8.40;82.42
68842;SHT35;55849;48.482;2.332;2023-12-20T10:04:23;8.45;82.41
68842;SHT35;55849;48.482;2.332;2023-12-20T10:07:26;8.49;82.58
68842;SHT35;55849;48.482;2.332;2023-12-20T10:10:27;8.51;82.99
68842;SHT35;55849;48.482;2.332;2023-12-20T10:13:30;8.55;83.32
68842;SHT35;55849;48.482;2.332;2023-12-20T10:16:33;8.61;83.43
68842;SHT35;55849;48.482;2.332;2023-12-20T10:19:37;8.66;83.03
68842;SHT35;55849;48.482;2.332;2023-12-20T10:22:39;8.73;83.15
68842;SHT35;55849;48.482;2.332;2023-12-20T10:25:41;8.75;83.03
68842;SHT35;55849;48.482;2.332;2023-12-20T10:28:44;8.80;82.53
68842;SHT35;55849;48.482;2.332;2023-12-20T10:31:45;8.87;82.92
68842;SHT35;55849;48.482;2.332;2023-12-20T10:34:47;8.86;82.67
68842;SHT35;55849;48.482;2.332;2023-12-20T10:37:49;8.89;82.72
68842;SHT35;55849;48.482;2.332;2023-12-20T10:40:56;8.91;82.78
68842;SHT35;55849;48.482;2.332;2023-12-20T10:44:01;8.94;82.89
68842;SHT35;55849;48.482;2.332;2023-12-20T10:47:04;9.00;83.02
68842;SHT35;55849;48.482;2.332;2023-12-20T10:50:07;9.04;82.80
68842;SHT35;55849;48.482;2.332;2023-12-20T10:53:10;9.07;83.18
68842;SHT35;55849;48.482;2.332;2023-12-20T10:56:16;9.13;82.92
68842;SHT35;55849;48.482;2.332;2023-12-20T10:59:20;9.18;82.76
68842;SHT35;55849;48.482;2.332;2023-12-20T11:02:25;9.23;82.79
68842;SHT35;55849;48.482;2.332;2023-12-20T11:05:31;9.27;82.52
68842;SHT35;55849;48.482;2.332;2023-12-20T11:08:41;9.32;82.44
68842;SHT35;55849;48.482;2.332;2023-12-20T11:12:07;9.36;82.40
68842;SHT35;55849;48.482;2.332;2023-12-20T11:15:12;9.36;82.38
68842;SHT35;55849;48.482;2.332;2023-12-20T11:18:15;9.42;82.25
68842;SHT35;55849;48.482;2.332;2023-12-20T11:21:17;9.43;82.21
68842;SHT35;55849;48.482;2.332;2023-12-20T11:24:21;9.46;82.16
68842;SHT35;55849;48.482;2.332;2023-12-20T11:27:23;9.48;82.24
68842;SHT35;55849;48.482;2.332;2023-12-20T11:30:40;9.52;82.69
68842;SHT35;55849;48.482;2.332;2023-12-20T11:33:42;9.60;82.37
68842;SHT35;55849;48.482;2.332;2023-12-20T11:36:44;9.63;82.65
68842;SHT35;55849;48.482;2.332;2023-12-20T11:39:54;9.69;82.17
68842;SHT35;55849;48.482;2.332;2023-12-20T11:42:56;9.72;81.93
68842;SHT35;55849;48.482;2.332;2023-12-20T11:46:03;9.76;82.23
68842;SHT35;55849;48.482;2.332;2023-12-20T11:49:06;9.83;81.92
68842;SHT35;55849;48.482;2.332;2023-12-20T11:52:07;9.89;82.33
68842;SHT35;55849;48.482;2.332;2023-12-20T11:55:09;9.93;82.16
68842;SHT35;55849;48.482;2.332;2023-12-20T11:58:10;9.95;81.85
68842;SHT35;55849;48.482;2.332;2023-12-20T12:01:14;10.03;81.94
68842;SHT35;55849;48.482;2.332;2023-12-20T12:04:16;10.05;81.68
68842;SHT35;55849;48.482;2.332;2023-12-20T12:07:18;10.08;81.64
68842;SHT35;55849;48.482;2.332;2023-12-20T12:10:20;10.10;81.20
68842;SHT35;55849;48.482;2.332;2023-12-20T12:13:22;10.12;81.56
68842;SHT35;55849;48.482;2.332;2023-12-20T12:16:25;10.17;81.43
68842;SHT35;55849;48.482;2.332;2023-12-20T12:19:26;10.19;81.36
68842;SHT35;55849;48.482;2.332;2023-12-20T12:22:29;10.25;81.77
68842;SHT35;55849;48.482;2.332;2023-12-20T12:25:32;10.32;81.45
68842;SHT35;55849;48.482;2.332;2023-12-20T12:28:34;10.36;81.88
68842;SHT35;55849;48.482;2.332;2023-12-20T12:31:37;10.45;81.68
68842;SHT35;55849;48.482;2.332;2023-12-20T12:34:39;10.50;82.03
68842;SHT35;55849;48.482;2.332;2023-12-20T12:37:41;10.55;81.53
68842;SHT35;55849;48.482;2.332;2023-12-20T12:40:43;10.59;81.28
68842;SHT35;55849;48.482;2.332;2023-12-20T12:43:45;10.66;80.83
68842;SHT35;55849;48.482;2.332;2023-12-20T12:46:48;10.70;80.73
68842;SHT35;55849;48.482;2.332;2023-12-20T12:49:51;10.73;81.26
68842;SHT35;55849;48.482;2.332;2023-12-20T12:52:53;10.79;80.94
68842;SHT35;55849;48.482;2.332;2023-12-20T12:55:55;10.84;81.05
68842;SHT35;55849;48.482;2.332;2023-12-20T12:58:56;10.85;80.61
68842;SHT35;55849;48.482;2.332;2023-12-20T13:01:59;10.90;80.09
68842;SHT35;55849;48.482;2.332;2023-12-20T13:05:01;10.93;79.92
68842;SHT35;55849;48.482;2.332;2023-12-20T13:08:03;10.94;80.40
68842;SHT35;55849;48.482;2.332;2023-12-20T13:11:05;10.93;79.68
68842;SHT35;55849;48.482;2.332;2023-12-20T13:14:07;10.90;79.94
68842;SHT35;55849;48.482;2.332;2023-12-20T13:17:12;10.88;79.81
68842;SHT35;55849;48.482;2.332;2023-12-20T13:20:14;10.88;79.65
68842;SHT35;55849;48.482;2.332;2023-12-20T13:23:15;10.88;79.74
68842;SHT35;55849;48.482;2.332;2023-12-20T13:26:18;10.87;79.54
68842;SHT35;55849;48.482;2.332;2023-12-20T13:29:20;10.85;79.83
68842;SHT35;55849;48.482;2.332;2023-12-20T13:32:22;10.85;79.81
68842;SHT35;55849;48.482;2.332;2023-12-20T13:35:24;10.84;79.79
68842;SHT35;55849;48.482;2.332;2023-12-20T13:38:26;10.85;79.78
68842;SHT35;55849;48.482;2.332;2023-12-20T13:41:27;10.90;80.05
68842;SHT35;55849;48.482;2.332;2023-12-20T13:44:29;10.90;79.73
68842;SHT35;55849;48.482;2.332;2023-12-20T13:47:32;10.90;79.93
68842;SHT35;55849;48.482;2.332;2023-12-20T13:50:34;10.87;79.80
68842;SHT35;55849;48.482;2.332;2023-12-20T13:53:35;10.88;80.09
68842;SHT35;55849;48.482;2.332;2023-12-20T13:56:38;10.94;80.18
68842;SHT35;55849;48.482;2.332;2023-12-20T13:59:40;10.94;79.96
68842;SHT35;55849;48.482;2.332;2023-12-20T14:02:43;11.01;79.84
68842;SHT35;55849;48.482;2.332;2023-12-20T14:05:44;11.04;79.83
68842;SHT35;55849;48.482;2.332;2023-12-20T14:08:46;11.07;79.60
68842;SHT35;55849;48.482;2.332;2023-12-20T14:11:48;11.12;79.58
68842;SHT35;55849;48.482;2.332;2023-12-20T14:14:50;11.14;79.50
68842;SHT35;55849;48.482;2.332;2023-12-20T14:17:53;11.22;79.01
68842;SHT35;55849;48.482;2.332;2023-12-20T14:20:55;11.23;79.07
68842;SHT35;55849;48.482;2.332;2023-12-20T14:23:56;11.25;78.90
68842;SHT35;55849;48.482;2.332;2023-12-20T14:26:59;11.26;79.17
68842;SHT35;55849;48.482;2.332;2023-12-20T14:30:00;11.26;79.30
68842;SHT35;55849;48.482;2.332;2023-12-20T14:33:04;11.26;79.13
68842;SHT35;55849;48.482;2.332;2023-12-20T14:36:06;11.28;78.96
68842;SHT35;55849;48.482;2.332;2023-12-20T14:39:08;11.26;78.84
68842;SHT35;55849;48.482;2.332;2023-12-20T14:42:13;11.26;78.95
68842;SHT35;55849;48.482;2.332;2023-12-20T14:45:15;11.25;78.94
68842;SHT35;55849;48.482;2.332;2023-12-20T14:48:18;11.26;79.05
68842;SHT35;55849;48.482;2.332;2023-12-20T14:51:19;11.25;79.15
68842;SHT35;55849;48.482;2.332;2023-12-20T14:54:21;11.25;78.92
68842;SHT35;55849;48.482;2.332;2023-12-20T14:57:23;11.23;78.86
68842;SHT35;55849;48.482;2.332;2023-12-20T15:00:24;11.25;78.93
68842;SHT35;55849;48.482;2.332;2023-12-20T15:03:27;11.23;79.04
68842;SHT35;55849;48.482;2.332;2023-12-20T15:06:29;11.23;78.90
68842;SHT35;55849;48.482;2.332;2023-12-20T15:09:32;11.22;79.00
68842;SHT35;55849;48.482;2.332;2023-12-20T15:12:33;11.23;78.99
68842;SHT35;55849;48.482;2.332;2023-12-20T15:15:35;11.21;79.18
68842;SHT35;55849;48.482;2.332;2023-12-20T15:18:39;11.23;78.94
68842;SHT35;55849;48.482;2.332;2023-12-20T15:21:41;11.21;79.04
68842;SHT35;55849;48.482;2.332;2023-12-20T15:24:43;11.23;79.00
68842;SHT35;55849;48.482;2.332;2023-12-20T15:27:46;11.21;78.91
68842;SHT35;55849;48.482;2.332;2023-12-20T15:30:52;11.21;79.03
68842;SHT35;55849;48.482;2.332;2023-12-20T15:33:55;11.21;79.09
68842;SHT35;55849;48.482;2.332;2023-12-20T15:36:57;11.19;78.96
68842;SHT35;55849;48.482;2.332;2023-12-20T15:39:58;11.18;79.06
68842;SHT35;55849;48.482;2.332;2023-12-20T15:43:00;11.16;79.02
68842;SHT35;55849;48.482;2.332;2023-12-20T15:46:02;11.16;79.01
68842;SHT35;55849;48.482;2.332;2023-12-20T15:49:05;11.18;79.11
68842;SHT35;55849;48.482;2.332;2023-12-20T15:52:07;11.18;79.18
68842;SHT35;55849;48.482;2.332;2023-12-20T15:55:08;11.15;79.31
68842;SHT35;55849;48.482;2.332;2023-12-20T15:58:10;11.16;79.40
68842;SHT35;55849;48.482;2.332;2023-12-20T16:01:12;11.14;79.09
68842;SHT35;55849;48.482;2.332;2023-12-20T16:04:14;11.12;79.30
68842;SHT35;55849;48.482;2.332;2023-12-20T16:07:16;11.12;79.23
68842;SHT35;55849;48.482;2.332;2023-12-20T16:10:18;11.14;79.26
68842;SHT35;55849;48.482;2.332;2023-12-20T16:13:19;11.12;79.34
68842;SHT35;55849;48.482;2.332;2023-12-20T16:16:21;11.14;79.22
68842;SHT35;55849;48.482;2.332;2023-12-20T16:19:24;11.11;79.33
68842;SHT35;55849;48.482;2.332;2023-12-20T16:22:25;11.12;79.26
68842;SHT35;55849;48.482;2.332;2023-12-20T16:25:27;11.12;79.35
68842;SHT35;55849;48.482;2.332;2023-12-20T16:28:29;11.10;79.35
68842;SHT35;55849;48.482;2.332;2023-12-20T16:31:30;11.08;79.37
68842;SHT35;55849;48.482;2.332;2023-12-20T16:34:33;11.10;79.56
68842;SHT35;55849;48.482;2.332;2023-12-20T16:37:35;11.10;79.50
68842;SHT35;55849;48.482;2.332;2023-12-20T16:40:38;11.08;79.51
68842;SHT35;55849;48.482;2.332;2023-12-20T16:43:40;11.05;79.53
68842;SHT35;55849;48.482;2.332;2023-12-20T16:46:42;11.11;79.54
68842;SHT35;55849;48.482;2.332;2023-12-20T16:49:45;11.07;79.27
68842;SHT35;55849;48.482;2.332;2023-12-20T16:52:46;11.08;79.56
68842;SHT35;55849;48.482;2.332;2023-12-20T16:55:51;11.05;79.42
68842;SHT35;55849;48.482;2.332;2023-12-20T16:58:53;11.04;79.55
68842;SHT35;55849;48.482;2.332;2023-12-20T17:01:54;11.03;79.36
68842;SHT35;55849;48.482;2.332;2023-12-20T17:04:57;11.03;79.56
68842;SHT35;55849;48.482;2.332;2023-12-20T17:07:59;11.04;79.58
68842;SHT35;55849;48.482;2.332;2023-12-20T17:11:00;11.04;79.59
68842;SHT35;55849;48.482;2.332;2023-12-20T17:14:02;11.01;79.56
68842;SHT35;55849;48.482;2.332;2023-12-20T17:17:04;11.01;79.60
68842;SHT35;55849;48.482;2.332;2023-12-20T17:20:08;11.00;79.45
68842;SHT35;55849;48.482;2.332;2023-12-20T17:23:09;11.00;79.54
68842;SHT35;55849;48.482;2.332;2023-12-20T17:26:12;11.01;79.61
68842;SHT35;55849;48.482;2.332;2023-12-20T17:29:13;11.04;79.59
68842;SHT35;55849;48.482;2.332;2023-12-20T17:32:15;10.97;79.80
68842;SHT35;55849;48.482;2.332;2023-12-20T17:35:18;11.01;79.90
68842;SHT35;55849;48.482;2.332;2023-12-20T17:38:20;10.98;79.80
68842;SHT35;55849;48.482;2.332;2023-12-20T17:41:22;11.00;79.85
68842;SHT35;55849;48.482;2.332;2023-12-20T17:44:23;10.98;79.78
68842;SHT35;55849;48.482;2.332;2023-12-20T17:47:25;10.98;79.85
68842;SHT35;55849;48.482;2.332;2023-12-20T17:50:28;11.00;79.97
68842;SHT35;55849;48.482;2.332;2023-12-20T17:53:29;11.01;79.81
68842;SHT35;55849;48.482;2.332;2023-12-20T17:56:31;10.97;79.87
68842;SHT35;55849;48.482;2.332;2023-12-20T17:59:32;10.94;80.02
68842;SHT35;55849;48.482;2.332;2023-12-20T18:02:34;10.98;79.91
68842;SHT35;55849;48.482;2.332;2023-12-20T18:05:37;10.98;79.94
68842;SHT35;55849;48.482;2.332;2023-12-20T18:08:38;10.97;79.91
68842;SHT35;55849;48.482;2.332;2023-12-20T18:11:40;10.98;79.95
68842;SHT35;55849;48.482;2.332;2023-12-20T18:14:42;10.98;80.00
68842;SHT35;55849;48.482;2.332;2023-12-20T18:17:46;10.97;79.89
68842;SHT35;55849;48.482;2.332;2023-12-20T18:20:49;10.95;79.98
68842;SHT35;55849;48.482;2.332;2023-12-20T18:23:51;10.97;80.05
68842;SHT35;55849;48.482;2.332;2023-12-20T18:26:52;11.00;80.00
68842;SHT35;55849;48.482;2.332;2023-12-20T18:29:54;10.98;79.99
68842;SHT35;55849;48.482;2.332;2023-12-20T18:32:55;10.95;80.05
68842;SHT35;55849;48.482;2.332;2023-12-20T18:35:59;10.94;79.93
68842;SHT35;55849;48.482;2.332;2023-12-20T18:39:00;10.94;79.98
68842;SHT35;55849;48.482;2.332;2023-12-20T18:42:02;10.97;80.19
68842;SHT35;55849;48.482;2.332;2023-12-20T18:45:05;10.95;80.19
68842;SHT35;55849;48.482;2.332;2023-12-20T18:48:08;10.94;80.03
68842;SHT35;55849;48.482;2.332;2023-12-20T18:51:11;10.95;80.10
68842;SHT35;55849;48.482;2.332;2023-12-20T18:54:12;10.94;80.13
68842;SHT35;55849;48.482;2.332;2023-12-20T18:57:14;10.94;80.01
68842;SHT35;55849;48.482;2.332;2023-12-20T19:00:16;10.93;80.02
68842;SHT35;55849;48.482;2.332;2023-12-20T19:03:17;10.93;80.05
68842;SHT35;55849;48.482;2.332;2023-12-20T19:06:20;10.93;80.16
68842;SHT35;55849;48.482;2.332;2023-12-20T19:09:22;10.94;80.12
68842;SHT35;55849;48.482;2.332;2023-12-20T19:12:24;10.95;80.24
68842;SHT35;55849;48.482;2.332;2023-12-20T19:15:26;10.94;80.17
68842;SHT35;55849;48.482;2.332;2023-12-20T19:18:28;10.97;80.21
68842;SHT35;55849;48.482;2.332;2023-12-20T19:21:31;10.95;80.29
68842;SHT35;55849;48.482;2.332;2023-12-20T19:24:33;10.94;80.30
68842;SHT35;55849;48.482;2.332;2023-12-20T19:27:35;10.93;80.33
68842;SHT35;55849;48.482;2.332;2023-12-20T19:30:36;10.97;80.28
68842;SHT35;55849;48.482;2.332;2023-12-20T19:33:39;10.95;80.24
68842;SHT35;55849;48.482;2.332;2023-12-20T19:36:42;10.95;80.29
68842;SHT35;55849;48.482;2.332;2023-12-20T19:39:43;10.94;80.38
68842;SHT35;55849;48.482;2.332;2023-12-20T19:42:45;10.93;80.37
68842;SHT35;55849;48.482;2.332;2023-12-20T19:45:46;10.93;80.35
68842;SHT35;55849;48.482;2.332;2023-12-20T19:48:48;10.93;80.52
68842;SHT35;55849;48.482;2.332;2023-12-20T19:51:52;10.94;80.37
68842;SHT35;55849;48.482;2.332;2023-12-20T19:54:53;10.97;80.45
68842;SHT35;55849;48.482;2.332;2023-12-20T19:57:55;10.95;80.57
68842;SHT35;55849;48.482;2.332;2023-12-20T20:00:57;10.97;80.47
68842;SHT35;55849;48.482;2.332;2023-12-20T20:03:58;10.97;80.51
68842;SHT35;55849;48.482;2.332;2023-12-20T20:07:01;10.95;80.65
68842;SHT35;55849;48.482;2.332;2023-12-20T20:10:03;10.98;80.60
68842;SHT35;55849;48.482;2.332;2023-12-20T20:13:05;10.97;80.52
68842;SHT35;55849;48.482;2.332;2023-12-20T20:16:07;10.95;80.78
68842;SHT35;55849;48.482;2.332;2023-12-20T20:19:08;10.98;80.75
68842;SHT35;55849;48.482;2.332;2023-12-20T20:22:11;10.98;80.89
68842;SHT35;55849;48.482;2.332;2023-12-20T20:25:15;11.00;80.81
68842;SHT35;55849;48.482;2.332;2023-12-20T20:28:16;11.04;80.87
68842;SHT35;55849;48.482;2.332;2023-12-20T20:31:18;11.00;80.92
68842;SHT35;55849;48.482;2.332;2023-12-20T20:34:19;11.01;80.98
68842;SHT35;55849;48.482;2.332;2023-12-20T20:37:23;11.03;81.02
68842;SHT35;55849;48.482;2.332;2023-12-20T20:40:24;11.01;81.01
68842;SHT35;55849;48.482;2.332;2023-12-20T20:43:26;11.03;81.01
68842;SHT35;55849;48.482;2.332;2023-12-20T20:46:28;11.01;81.07
68842;SHT35;55849;48.482;2.332;2023-12-20T20:49:29;11.01;81.00
68842;SHT35;55849;48.482;2.332;2023-12-20T20:52:32;11.01;81.00
68842;SHT35;55849;48.482;2.332;2023-12-20T20:55:34;11.03;80.96
68842;SHT35;55849;48.482;2.332;2023-12-20T20:58:35;11.01;80.96
68842;SHT35;55849;48.482;2.332;2023-12-20T21:01:37;11.03;80.99
68842;SHT35;55849;48.482;2.332;2023-12-20T21:04:39;11.04;80.91
68842;SHT35;55849;48.482;2.332;2023-12-20T21:07:42;11.04;80.88
68842;SHT35;55849;48.482;2.332;2023-12-20T21:10:44;11.01;80.99
68842;SHT35;55849;48.482;2.332;2023-12-20T21:13:46;11.03;81.02
68842;SHT35;55849;48.482;2.332;2023-12-20T21:16:48;11.04;81.06
68842;SHT35;55849;48.482;2.332;2023-12-20T21:19:50;11.04;81.05
68842;SHT35;55849;48.482;2.332;2023-12-20T21:22:52;11.07;81.06
68842;SHT35;55849;48.482;2.332;2023-12-20T21:25:55;11.07;81.05
68842;SHT35;55849;48.482;2.332;2023-12-20T21:28:56;11.05;80.99
68842;SHT35;55849;48.482;2.332;2023-12-20T21:31:58;11.05;81.14
68842;SHT35;55849;48.482;2.332;2023-12-20T21:34:59;11.07;81.10
68842;SHT35;55849;48.482;2.332;2023-12-20T21:38:02;11.07;81.16
68842;SHT35;55849;48.482;2.332;2023-12-20T21:41:04;11.08;81.16
68842;SHT35;55849;48.482;2.332;2023-12-20T21:44:07;11.10;81.09
68842;SHT35;55849;48.482;2.332;2023-12-20T21:47:08;11.10;81.14
68842;SHT35;55849;48.482;2.332;2023-12-20T21:50:10;11.12;81.22
68842;SHT35;55849;48.482;2.332;2023-12-20T21:53:13;11.10;81.23
68842;SHT35;55849;48.482;2.332;2023-12-20T21:56:16;11.12;81.10
68842;SHT35;55849;48.482;2.332;2023-12-20T21:59:17;11.15;81.11
68842;SHT35;55849;48.482;2.332;2023-12-20T22:02:21;11.14;81.21
68842;SHT35;55849;48.482;2.332;2023-12-20T22:05:22;11.15;81.27
68842;SHT35;55849;48.482;2.332;2023-12-20T22:08:26;11.15;81.19
68842;SHT35;55849;48.482;2.332;2023-12-20T22:11:28;11.16;81.21
68842;SHT35;55849;48.482;2.332;2023-12-20T22:14:29;11.18;81.04
68842;SHT35;55849;48.482;2.332;2023-12-20T22:17:32;11.16;80.92
68842;SHT35;55849;48.482;2.332;2023-12-20T22:20:34;11.18;81.06
68842;SHT35;55849;48.482;2.332;2023-12-20T22:23:41;11.19;81.03
68842;SHT35;55849;48.482;2.332;2023-12-20T22:26:42;11.18;81.07
68842;SHT35;55849;48.482;2.332;2023-12-20T22:29:44;11.18;81.12
68842;SHT35;55849;48.482;2.332;2023-12-20T22:32:46;11.22;81.08
68842;SHT35;55849;48.482;2.332;2023-12-20T22:35:48;11.22;81.05
68842;SHT35;55849;48.482;2.332;2023-12-20T22:38:51;11.23;80.92
68842;SHT35;55849;48.482;2.332;2023-12-20T22:41:53;11.23;80.93
68842;SHT35;55849;48.482;2.332;2023-12-20T22:44:55;11.23;80.85
68842;SHT35;55849;48.482;2.332;2023-12-20T22:47:56;11.26;80.90
68842;SHT35;55849;48.482;2.332;2023-12-20T22:50:58;11.26;80.93
68842;SHT35;55849;48.482;2.332;2023-12-20T22:54:01;11.28;80.79
